Time;durP1;ratioP1;P1;durP2;ratioP2;P2;SDS_P1;SDS_P2;PMS_P1;PMS_P2;Temp;Humidity;BMP_temperature;BMP_pressure;BME280_temperature;BME280_humidity;BME280_pressure;Samples;Min_cycle;Max_cycle;Signal;HPM_P1;HPM_P2
2023/12/06 00:03:03;;;;;;;98.20;66.20;;;;;;;-3.41;100.00;100261.67;110367;1265;21975;-77
2023/12/06 00:05:52;;;;;;;115.90;72.70;;;;;;;-3.45;100.00;100259.58;110341;1263;23781;-78
2023/12/06 00:08:52;;;;;;;136.90;76.80;;;;;;;-3.47;100.00;100260.55;110279;1263;22137;-78
2023/12/06 00:11:47;;;;;;;141.60;80.70;;;;;;;-3.60;100.00;100238.40;110420;1263;21969;-76
2023/12/06 00:14:29;;;;;;;139.10;83.00;;;;;;;-3.47;100.00;100262.77;110076;1263;21966;-76
2023/12/06 00:17:35;;;;;;;132.30;79.40;;;;;;;-3.44;100.00;100264.36;110391;1263;23581;-76
2023/12/06 00:21:01;;;;;;;102.60;69.70;;;;;;;-3.46;100.00;100267.22;110221;1263;23695;-78
2023/12/06 00:23:54;;;;;;;103.70;70.70;;;;;;;-3.47;100.00;100269.91;110401;1250;22065;-76
2023/12/06 00:27:07;;;;;;;109.10;70.10;;;;;;;-3.47;100.00;100275.02;110760;1258;23018;-76
2023/12/06 00:30:08;;;;;;;104.00;70.30;;;;;;;-3.42;100.00;100276.64;110707;1258;22325;-77
2023/12/06 00:33:03;;;;;;;95.10;67.50;;;;;;;-3.37;100.00;100276.04;110634;1252;21968;-76
2023/12/06 00:35:59;;;;;;;96.80;67.20;;;;;;;-3.33;100.00;100277.64;110246;1266;21982;-76
2023/12/06 00:38:40;;;;;;;90.20;65.90;;;;;;;-3.32;100.00;100282.61;110078;1266;21990;-79
2023/12/06 00:41:59;;;;;;;91.30;65.00;;;;;;;-3.34;100.00;100279.17;110078;1266;21976;-78
2023/12/06 00:45:03;;;;;;;90.10;64.10;;;;;;;-3.36;100.00;100281.52;110034;1266;21983;-77
2023/12/06 00:47:51;;;;;;;93.50;68.80;;;;;;;-3.35;100.00;100277.61;109750;1265;21971;-77
2023/12/06 00:50:27;;;;;;;91.30;66.80;;;;;;;-3.35;100.00;100275.06;109594;1271;23119;-76
2023/12/06 00:53:19;;;;;;;90.70;66.30;;;;;;;-3.33;100.00;100282.92;109604;1263;22029;-76
2023/12/06 00:56:18;;;;;;;88.40;64.60;;;;;;;-3.31;100.00;100287.22;110414;1263;21981;-76
2023/12/06 00:58:59;;;;;;;88.20;65.30;;;;;;;-3.28;100.00;100287.77;110118;1263;23477;-79
2023/12/06 01:01:46;;;;;;;90.10;65.60;;;;;;;-3.24;100.00;100284.95;109904;1269;23699;-77
2023/12/06 01:04:27;;;;;;;91.70;66.60;;;;;;;-3.22;100.00;100289.75;109700;1264;21990;-77
2023/12/06 01:07:17;;;;;;;88.10;67.30;;;;;;;-3.18;100.00;100295.09;109669;1269;22103;-76
2023/12/06 01:10:29;;;;;;;;;;;;;;;;;;;;;
2023/12/06 01:13:41;;;;;;;86.10;64.30;;;;;;;-3.14;100.00;100284.44;109658;1270;21978;-79
2023/12/06 01:16:32;;;;;;;91.00;66.70;;;;;;;-3.14;100.00;100281.71;110016;1267;22737;-78
2023/12/06 01:19:22;;;;;;;89.10;66.00;;;;;;;-3.10;100.00;100286.04;109988;1260;21967;-77
2023/12/06 01:21:58;;;;;;;118.30;67.50;;;;;;;-3.07;100.00;100290.34;110140;1266;21980;-77
2023/12/06 01:24:42;;;;;;;96.90;68.50;;;;;;;-3.04;100.00;100294.83;110198;1266;21976;-78
2023/12/06 01:27:38;;;;;;;91.60;67.80;;;;;;;-3.01;100.00;100296.91;110038;1255;23049;-76
2023/12/06 01:30:37;;;;;;;101.60;63.80;;;;;;;-3.01;100.00;100295.70;110227;1266;21955;-76
2023/12/06 01:33:21;;;;;;;83.90;62.80;;;;;;;-3.05;100.00;100294.45;109552;1271;22214;-79
2023/12/06 01:36:14;;;;;;;87.00;65.60;;;;;;;-3.09;100.00;100287.57;109297;1271;22707;-79
2023/12/06 01:39:02;;;;;;;88.30;65.00;;;;;;;-3.14;100.00;100284.77;109329;1272;23631;-78
2023/12/06 01:41:57;;;;;;;83.40;61.30;;;;;;;-3.19;100.00;100284.70;109356;1268;21978;-77
2023/12/06 01:44:49;;;;;;;90.50;64.20;;;;;;;-3.22;100.00;100286.02;109273;1271;22262;-76
2023/12/06 01:47:25;;;;;;;88.40;62.30;;;;;;;-3.23;100.00;100281.91;110040;1266;22508;-78
2023/12/06 01:50:03;;;;;;;85.00;64.30;;;;;;;-3.30;100.00;100272.77;109746;1266;22358;-75
2023/12/06 01:52:56;;;;;;;85.30;65.70;;;;;;;-3.33;100.00;100275.27;110680;1260;23505;-76
2023/12/06 01:55:50;;;;;;;87.80;65.60;;;;;;;-3.32;100.00;100286.67;110518;1260;23034;-77
2023/12/06 01:58:38;;;;;;;93.20;66.60;;;;;;;-3.35;100.00;100287.33;110606;1257;21998;-76
2023/12/06 02:01:23;;;;;;;90.10;65.20;;;;;;;-3.37;100.00;100292.73;107722;1260;3654535;-76
2023/12/06 02:04:12;;;;;;;84.90;63.50;;;;;;;-3.39;100.00;100297.45;110506;1260;23024;-76
2023/12/06 02:07:05;;;;;;;88.10;64.30;;;;;;;-3.41;100.00;100298.10;110644;1260;22023;-76
2023/12/06 02:10:22;;;;;;;91.90;65.50;;;;;;;-3.46;100.00;100291.70;110441;1262;23000;-79
2023/12/06 02:13:21;;;;;;;95.70;66.70;;;;;;;-3.49;100.00;100291.13;110462;1262;21956;-77
2023/12/06 02:16:21;;;;;;;92.00;64.20;;;;;;;-3.49;100.00;100291.98;110503;1262;22097;-77
2023/12/06 02:19:05;;;;;;;94.80;67.80;;;;;;;-3.50;100.00;100291.80;110272;1262;23689;-78
2023/12/06 02:21:58;;;;;;;84.80;60.80;;;;;;;-3.53;100.00;100294.98;110459;1258;21996;-76
2023/12/06 02:25:11;;;;;;;87.80;64.40;;;;;;;-3.55;100.00;100296.14;110226;1262;22002;-77
2023/12/06 02:27:50;;;;;;;84.80;61.20;;;;;;;-3.57;100.00;100297.65;110563;1260;23709;-77
2023/12/06 02:30:35;;;;;;;;;;;;;;;-3.58;100.00;100294.40;110634;1260;23844;-78
2023/12/06 02:33:37;;;;;;;84.40;62.10;;;;;;;-3.68;100.00;100290.80;110521;1256;23019;-76
2023/12/06 02:36:22;;;;;;;81.30;61.20;;;;;;;-3.68;100.00;100291.30;110396;1265;21999;-76
2023/12/06 02:39:33;;;;;;;84.10;59.60;;;;;;;-3.68;100.00;100287.23;109810;1270;21984;-78
2023/12/06 02:42:07;;;;;;;87.00;65.00;;;;;;;-3.69;100.00;100284.66;109640;1270;23743;-76
2023/12/06 02:44:52;;;;;;;86.30;64.20;;;;;;;-3.71;100.00;100287.66;108869;1275;21985;-77
2023/12/06 02:47:24;;;;;;;83.10;63.80;;;;;;;-3.74;100.00;100292.39;108980;1275;24316;-76
2023/12/06 02:50:18;;;;;;;83.10;62.70;;;;;;;-3.75;100.00;100290.84;109003;1275;21988;-77
2023/12/06 02:53:03;;;;;;;92.00;66.40;;;;;;;-3.79;100.00;100290.77;108533;1280;22000;-76
2023/12/06 02:55:38;;;;;;;89.90;66.30;;;;;;;-3.79;100.00;100288.71;108933;1275;22861;-79
2023/12/06 02:58:18;;;;;;;96.00;66.50;;;;;;;-3.80;100.00;100284.11;109011;1272;21979;-76
2023/12/06 03:01:01;;;;;;;90.70;65.90;;;;;;;-3.81;100.00;100286.12;109132;1270;23645;-77
2023/12/06 03:03:33;;;;;;;92.00;69.30;;;;;;;-3.82;100.00;100285.77;109326;1272;23971;-76
2023/12/06 03:06:33;;;;;;;94.70;69.60;;;;;;;-3.86;100.00;100286.20;108924;1263;23742;-78
2023/12/06 03:09:13;;;;;;;96.90;69.60;;;;;;;-3.87;100.00;100284.64;108608;1275;21996;-77
2023/12/06 03:11:51;;;;;;;94.30;70.20;;;;;;;-3.86;100.00;100282.11;109503;1269;22997;-77
2023/12/06 03:14:31;;;;;;;92.90;70.80;;;;;;;-3.86;100.00;100280.75;109462;1268;22058;-78
2023/12/06 03:17:14;;;;;;;87.40;67.50;;;;;;;-3.87;100.00;100283.29;109671;1268;21970;-76
2023/12/06 03:20:14;;;;;;;96.90;70.70;;;;;;;-3.87;100.00;100284.64;109709;1266;23041;-76
2023/12/06 03:22:57;;;;;;;85.00;66.00;;;;;;;-3.88;100.00;100285.48;109568;1268;22814;-76
2023/12/06 03:25:54;;;;;;;92.80;67.50;;;;;;;-3.91;100.00;100284.91;110319;1264;21974;-77
2023/12/06 03:28:46;;;;;;;87.80;65.00;;;;;;;-3.91;100.00;100280.48;110699;1260;21965;-78
2023/12/06 03:32:00;;;;;;;87.20;64.90;;;;;;;-3.90;100.00;100275.74;110565;1260;22154;-77
2023/12/06 03:35:06;;;;;;;89.30;64.90;;;;;;;-3.89;100.00;100276.10;110704;1260;21970;-78
2023/12/06 03:37:58;;;;;;;;;;;;;;;;;;;;;
2023/12/06 03:40:40;;;;;;;90.10;65.40;;;;;;;-3.99;100.00;100251.61;110109;1266;22851;-78
2023/12/06 03:44:03;;;;;;;90.40;64.60;;;;;;;-3.89;100.00;100268.11;110265;1265;22371;-77
2023/12/06 03:46:48;;;;;;;84.50;62.50;;;;;;;-3.90;100.00;100270.99;110154;1265;23734;-77
2023/12/06 03:50:05;;;;;;;88.00;65.10;;;;;;;-3.92;100.00;100269.77;109697;1270;22421;-76
2023/12/06 03:52:55;;;;;;;90.70;66.00;;;;;;;-3.96;100.00;100268.49;109379;1262;22020;-76
2023/12/06 03:55:36;;;;;;;86.70;64.60;;;;;;;-4.01;100.00;100271.47;109436;1268;22728;-78
2023/12/06 03:58:18;;;;;;;84.60;65.70;;;;;;;-4.03;100.00;100271.74;109848;1268;23718;-76
2023/12/06 04:00:59;;;;;;;92.50;65.20;;;;;;;-4.08;100.00;100268.42;109080;1274;22010;-79
2023/12/06 04:03:44;;;;;;;88.70;66.60;;;;;;;-4.15;100.00;100267.95;109376;1273;21992;-78
2023/12/06 04:07:05;;;;;;;90.10;64.60;;;;;;;-4.23;100.00;100266.58;109271;1273;24388;-78
2023/12/06 04:10:32;;;;;;;99.00;69.30;;;;;;;-4.30;100.00;100268.30;109887;1269;21991;-79
2023/12/06 04:13:37;;;;;;;95.50;67.70;;;;;;;-4.35;100.00;100271.11;109938;1267;23599;-78
2023/12/06 04:16:37;;;;;;;100.90;69.80;;;;;;;-4.39;100.00;100271.52;109957;1267;21979;-78
2023/12/06 04:22:46;;;;;;;96.50;70.30;;;;;;;-4.43;100.00;100277.38;109174;1273;21986;-78
2023/12/06 04:25:40;;;;;;;94.80;73.50;;;;;;;-4.42;100.00;100283.67;109091;1271;22005;-76
2023/12/06 04:28:33;;;;;;;100.50;74.30;;;;;;;-4.41;100.00;100285.23;109028;1268;23057;-77
2023/12/06 04:34:14;;;;;;;;;;;;;;;-4.44;100.00;100291.63;109019;1275;23624;-78
2023/12/06 04:36:54;;;;;;;99.60;70.70;;;;;;;-4.51;100.00;100296.40;109052;1275;21992;-77
2023/12/06 04:39:38;;;;;;;100.50;72.00;;;;;;;-4.54;100.00;100304.15;109000;1275;21975;-78
2023/12/06 04:42:29;;;;;;;106.60;75.10;;;;;;;-4.54;100.00;100303.97;108973;1274;24523;-78
2023/12/06 04:45:32;;;;;;;98.40;71.40;;;;;;;-4.53;100.00;100307.05;109011;1275;22126;-77
2023/12/06 04:48:33;;;;;;;102.80;72.80;;;;;;;-4.53;100.00;100306.38;109074;1273;23030;-77
2023/12/06 04:51:20;;;;;;;105.70;73.10;;;;;;;-4.62;100.00;100297.34;109192;1272;23068;-77
2023/12/06 04:54:12;;;;;;;136.90;90.50;;;;;;;-4.54;100.00;100311.96;109386;1272;21989;-78
2023/12/06 04:57:04;;;;;;;116.70;82.90;;;;;;;-4.54;100.00;100311.79;108808;1279;21965;-77
2023/12/06 05:00:09;;;;;;;;;;;;;;;;;;;;;
2023/12/06 05:03:09;;;;;;;110.70;76.80;;;;;;;-4.57;100.00;100309.34;109345;1272;23619;-76
2023/12/06 05:06:14;;;;;;;110.30;81.30;;;;;;;-4.71;100.00;100288.80;109452;1272;23067;-77
2023/12/06 05:09:12;;;;;;;101.30;75.80;;;;;;;-4.74;100.00;100291.29;109524;1267;21981;-78
2023/12/06 05:12:29;;;;;;;;;;;;;;;;;;;;;
2023/12/06 05:15:15;;;;;;;125.20;89.10;;;;;;;-4.66;100.00;100306.08;110002;1261;23002;-78
2023/12/06 05:17:53;;;;;;;215.60;144.20;;;;;;;-4.68;100.00;100305.34;109834;1265;22997;-78
2023/12/06 05:20:50;;;;;;;267.50;177.60;;;;;;;-4.73;100.00;100307.11;110096;1267;22856;-77
2023/12/06 05:23:32;;;;;;;361.30;250.60;;;;;;;-4.74;100.00;100307.94;110110;1267;22044;-77
2023/12/06 05:26:28;;;;;;;;;;;;;;;;;;;;;
2023/12/06 05:29:16;;;;;;;;;;;;;;;;;;;;;
2023/12/06 05:32:13;;;;;;;161.00;110.50;;;;;;;-4.87;100.00;100301.67;110241;1267;23670;-78
2023/12/06 05:35:07;;;;;;;138.60;95.80;;;;;;;-4.91;100.00;100299.21;109191;1268;21989;-78
2023/12/06 05:38:12;;;;;;;125.00;92.10;;;;;;;-5.05;100.00;100286.33;110042;1268;22736;-76
2023/12/06 05:40:59;;;;;;;129.90;97.60;;;;;;;-4.95;100.00;100307.95;109772;1268;22014;-75
2023/12/06 05:43:37;;;;;;;117.60;90.40;;;;;;;-4.93;100.00;100312.21;109846;1268;21996;-76
2023/12/06 05:46:21;;;;;;;136.50;104.60;;;;;;;-4.94;100.00;100318.48;109698;1268;21977;-76
2023/12/06 05:48:53;;;;;;;127.40;92.80;;;;;;;-4.97;100.00;100312.98;109877;1268;21975;-77
2023/12/06 05:51:24;;;;;;;121.70;88.90;;;;;;;-4.97;100.00;100315.86;109738;1267;21973;-76
2023/12/06 05:54:14;;;;;;;119.70;86.30;;;;;;;-4.94;100.00;100313.04;109806;1267;21985;-79
2023/12/06 05:56:44;;;;;;;111.70;82.50;;;;;;;-4.94;100.00;100309.16;109881;1268;21998;-76
2023/12/06 05:59:15;;;;;;;113.30;81.50;;;;;;;-4.95;100.00;100310.15;109609;1271;21980;-78
2023/12/06 06:01:52;;;;;;;109.50;80.90;;;;;;;-4.96;100.00;100311.48;109407;1272;23830;-76
2023/12/06 06:04:34;;;;;;;126.60;90.80;;;;;;;-4.96;100.00;100315.88;109295;1272;21982;-79
2023/12/06 06:07:17;;;;;;;145.90;104.90;;;;;;;-4.97;100.00;100320.97;109318;1272;22082;-77
2023/12/06 06:10:14;;;;;;;125.40;87.90;;;;;;;-4.94;100.00;100322.05;109302;1272;22328;-76
2023/12/06 06:12:52;;;;;;;129.80;86.20;;;;;;;-4.95;100.00;100327.30;109853;1267;21986;-78
2023/12/06 06:15:44;;;;;;;136.40;91.50;;;;;;;-4.96;100.00;100330.84;110105;1267;23625;-77
2023/12/06 06:18:28;;;;;;;117.00;84.90;;;;;;;-4.97;100.00;100331.14;110421;1261;23604;-79
2023/12/06 06:21:21;;;;;;;121.20;84.00;;;;;;;-4.96;100.00;100332.00;110698;1260;22121;-80
2023/12/06 06:24:58;;;;;;;;;;;;;;;;;;;;;
2023/12/06 06:36:05;;;;;;;;;;;;;;;;;;;;;
2023/12/06 06:38:56;;;;;;;117.00;81.70;;;;;;;-4.99;100.00;100339.90;108231;1286;22002;-84
2023/12/06 06:41:29;;;;;;;121.10;83.50;;;;;;;-5.02;100.00;100339.84;108364;1283;23062;-78
2023/12/06 06:44:51;;;;;;;110.10;76.70;;;;;;;-5.05;100.00;100342.81;108496;1283;23609;-79
2023/12/06 06:47:44;;;;;;;106.00;77.40;;;;;;;-5.09;100.00;100345.77;108255;1288;22019;-79
2023/12/06 06:51:13;;;;;;;;;;;;;;;;;;;;;
2023/12/06 06:54:43;;;;;;;;;;;;;;;;;;;;;
2023/12/06 06:57:37;;;;;;;120.40;78.00;;;;;;;-5.11;100.00;100348.61;107872;1292;22497;-82
2023/12/06 07:00:35;;;;;;;114.20;79.40;;;;;;;-5.10;100.00;100351.86;108295;1286;23096;-82
2023/12/06 07:03:21;;;;;;;118.20;79.20;;;;;;;-5.11;100.00;100348.45;108319;1285;22747;-77
2023/12/06 07:10:52;;;;;;;;;;;;;;;;;;;;;
2023/12/06 07:13:11;;;;;;;121.60;79.90;;;;;;;-5.04;100.00;100353.88;107566;1295;22028;-81
2023/12/06 07:15:43;;;;;;;122.00;84.00;;;;;;;-5.00;100.00;100352.80;107298;1295;21981;-76
2023/12/06 07:18:28;;;;;;;;;;;;;;;;;;;;;
2023/12/06 07:21:19;;;;;;;118.90;82.60;;;;;;;-4.93;100.00;100346.86;107475;1295;22012;-77
2023/12/06 07:23:51;;;;;;;114.90;79.50;;;;;;;-4.88;100.00;100352.41;107466;1281;23082;-78
2023/12/06 07:26:32;;;;;;;110.00;82.80;;;;;;;-4.88;100.00;100355.81;107556;1292;23096;-77
2023/12/06 07:29:16;;;;;;;119.40;86.70;;;;;;;-4.89;100.00;100359.52;107695;1292;22012;-79
2023/12/06 07:31:52;;;;;;;115.60;82.30;;;;;;;-4.88;100.00;100360.21;108277;1287;21998;-79
2023/12/06 07:35:03;;;;;;;122.70;84.10;;;;;;;-4.83;100.00;100357.79;108402;1283;23877;-77
2023/12/06 07:38:11;;;;;;;108.40;80.00;;;;;;;-4.82;100.00;100357.98;108399;1285;22001;-78
2023/12/06 07:41:00;;;;;;;122.60;82.80;;;;;;;-4.86;100.00;100363.15;108150;1285;21996;-79
2023/12/06 07:43:45;;;;;;;116.30;79.50;;;;;;;-4.87;100.00;100365.49;108275;1285;22014;-80
2023/12/06 07:46:47;;;;;;;123.20;82.50;;;;;;;-4.87;100.00;100364.16;108659;1279;21996;-80
2023/12/06 07:49:39;;;;;;;130.00;89.30;;;;;;;-4.86;100.00;100365.38;108652;1275;21991;-77
2023/12/06 07:52:53;;;;;;;118.20;82.10;;;;;;;-4.82;100.00;100367.14;108996;1276;23050;-77
2023/12/06 07:56:17;;;;;;;126.40;84.60;;;;;;;-4.81;100.00;100358.17;109414;1270;21982;-75
2023/12/06 07:59:17;;;;;;;127.00;84.00;;;;;;;-4.79;100.00;100359.10;109845;1269;22198;-78
2023/12/06 08:02:09;;;;;;;128.90;89.00;;;;;;;-4.76;100.00;100361.38;109422;1269;22127;-77
2023/12/06 08:05:35;;;;;;;118.50;83.40;;;;;;;-4.73;100.00;100362.47;109054;1276;22746;-80
2023/12/06 08:08:25;;;;;;;133.40;88.90;;;;;;;-4.67;100.00;100357.16;109200;1276;21992;-79
2023/12/06 08:11:20;;;;;;;125.30;82.80;;;;;;;-4.62;100.00;100359.32;108858;1275;22979;-77
2023/12/06 08:13:53;;;;;;;120.70;86.10;;;;;;;-4.58;100.00;100362.15;109004;1275;22072;-78
2023/12/06 08:16:56;;;;;;;145.80;88.80;;;;;;;-4.50;100.00;100364.17;108514;1283;21995;-78
2023/12/06 08:19:45;;;;;;;;;;;;;;;;;;;;;
2023/12/06 08:22:46;;;;;;;123.00;82.00;;;;;;;-4.37;100.00;100371.98;108951;1272;21983;-78
2023/12/06 08:25:40;;;;;;;132.70;91.40;;;;;;;-4.34;100.00;100367.96;109362;1272;22834;-79
2023/12/06 08:29:00;;;;;;;132.20;85.80;;;;;;;-4.29;100.00;100367.71;108798;1278;23756;-82
2023/12/06 08:32:58;;;;;;;;;;;;;;;;;;;;;
2023/12/06 08:36:32;;;;;;;;;;;;;;;;;;;;;
2023/12/06 08:39:48;;;;;;;120.50;81.20;;;;;;;-4.19;100.00;100365.07;108384;1285;22082;-77
2023/12/06 08:43:35;;;;;;;140.30;87.70;;;;;;;-4.08;100.00;100365.82;107993;1290;22056;-78
2023/12/06 08:47:17;;;;;;;124.20;84.20;;;;;;;-3.99;100.00;100368.41;108064;1285;22009;-77
2023/12/06 08:50:04;;;;;;;125.70;86.60;;;;;;;-3.94;100.00;100372.41;108545;1279;22057;-78
2023/12/06 08:53:04;;;;;;;;;;;;;;;;;;;;;
2023/12/06 08:55:59;;;;;;;;;;;;;;;;;;;;;
2023/12/06 08:59:17;;;;;;;129.90;88.50;;;;;;;-3.84;100.00;100374.33;109414;1270;23055;-79
2023/12/06 09:02:26;;;;;;;126.30;85.90;;;;;;;-3.78;100.00;100379.21;109501;1268;23090;-78
2023/12/06 09:05:55;;;;;;;129.30;89.30;;;;;;;-3.80;100.00;100379.33;109653;1270;24298;-77
2023/12/06 09:08:52;;;;;;;141.20;97.00;;;;;;;-3.82;100.00;100378.27;109318;1270;24133;-79
2023/12/06 09:11:44;;;;;;;141.50;98.30;;;;;;;-3.96;100.00;100353.51;109183;1270;23796;-76
2023/12/06 09:14:29;;;;;;;135.90;95.10;;;;;;;-3.81;100.00;100376.94;109092;1274;22342;-77
2023/12/06 09:17:40;;;;;;;135.90;92.60;;;;;;;-3.77;100.00;100372.42;109046;1275;22490;-79
2023/12/06 09:20:41;;;;;;;132.00;90.00;;;;;;;-3.74;100.00;100373.00;109585;1270;21980;-79
2023/12/06 09:23:37;;;;;;;;;;;;;;;;;;;;;
2023/12/06 09:26:27;;;;;;;125.20;86.90;;;;;;;-3.68;100.00;100374.31;109135;1273;23374;-78
2023/12/06 09:29:33;;;;;;;131.70;87.80;;;;;;;-3.63;100.00;100375.77;108952;1276;23766;-77
2023/12/06 09:32:38;;;;;;;117.80;81.70;;;;;;;-3.64;100.00;100371.50;108658;1279;23643;-79
2023/12/06 09:35:10;;;;;;;;;;;;;;;-3.62;100.00;100372.20;108813;1279;21998;-77
2023/12/06 09:38:00;;;;;;;133.50;85.80;;;;;;;-3.62;100.00;100370.17;108645;1279;23711;-80
2023/12/06 09:41:17;;;;;;;;;;;;;;;;;;;;;
2023/12/06 09:44:05;;;;;;;126.80;86.90;;;;;;;-3.45;100.00;100369.31;108642;1279;21999;-80
2023/12/06 09:46:48;;;;;;;129.00;89.00;;;;;;;-3.38;100.00;100365.02;108851;1276;21983;-78
2023/12/06 09:49:45;;;;;;;;;;;;;;;-3.36;100.00;100361.84;108717;1277;23068;-80
2023/12/06 09:52:38;;;;;;;123.80;84.00;;;;;;;-3.40;100.00;100359.38;109038;1277;22102;-78
2023/12/06 09:55:23;;;;;;;123.50;85.40;;;;;;;-3.46;100.00;100343.27;109065;1274;22014;-78
2023/12/06 09:58:15;;;;;;;123.00;82.60;;;;;;;-3.40;100.00;100341.85;108864;1270;23062;-80
2023/12/06 10:01:01;;;;;;;116.20;81.80;;;;;;;-3.23;100.00;100351.67;109018;1276;22844;-82
2023/12/06 10:03:32;;;;;;;125.20;87.30;;;;;;;-3.16;100.00;100347.91;108677;1281;23049;-80
2023/12/06 10:06:17;;;;;;;120.20;82.40;;;;;;;-3.01;100.00;100345.61;108625;1281;23806;-77
2023/12/06 10:08:59;;;;;;;118.90;84.10;;;;;;;-2.93;100.00;100348.64;108657;1276;22006;-78
2023/12/06 10:11:34;;;;;;;124.90;84.80;;;;;;;-2.90;100.00;100348.51;108494;1281;22520;-75
2023/12/06 10:14:04;;;;;;;119.50;83.50;;;;;;;-2.89;100.00;100347.69;108451;1281;22269;-78
2023/12/06 10:16:41;;;;;;;120.80;84.30;;;;;;;-2.87;100.00;100344.31;108690;1276;22031;-76
2023/12/06 10:19:19;;;;;;;116.50;84.70;;;;;;;-2.84;100.00;100344.36;108922;1276;23009;-77
2023/12/06 10:22:06;;;;;;;113.10;80.30;;;;;;;-2.93;100.00;100323.78;109171;1271;23712;-77
2023/12/06 10:24:59;;;;;;;115.70;82.60;;;;;;;-2.80;100.00;100340.69;109371;1271;23802;-77
2023/12/06 10:27:36;;;;;;;138.40;88.30;;;;;;;-2.79;100.00;100338.31;108874;1276;21991;-77
2023/12/06 10:30:24;;;;;;;115.20;79.80;;;;;;;-2.69;100.00;100345.30;109295;1270;22073;-78
2023/12/06 10:33:10;;;;;;;;;;;;;;;;;;;;;
2023/12/06 10:35:53;;;;;;;295.10;161.80;;;;;;;-2.65;100.00;100340.07;109690;1270;22004;-78
2023/12/06 10:38:57;;;;;;;251.10;128.70;;;;;;;-2.61;100.00;100335.86;109508;1270;22974;-78
2023/12/06 10:41:35;;;;;;;128.40;82.70;;;;;;;-2.56;100.00;100330.50;109090;1275;22356;-79
2023/12/06 10:44:13;;;;;;;150.30;94.30;;;;;;;-2.52;100.00;100327.48;108760;1279;22215;-81
2023/12/06 10:46:46;;;;;;;113.60;81.60;;;;;;;-2.49;100.00;100328.04;109070;1270;22981;-76
2023/12/06 10:49:33;;;;;;;122.50;84.30;;;;;;;-2.48;100.00;100328.73;109362;1270;22118;-77
2023/12/06 10:52:09;;;;;;;114.80;84.80;;;;;;;-2.48;100.00;100329.41;109389;1270;24311;-76
2023/12/06 10:54:42;;;;;;;123.10;86.70;;;;;;;-2.47;100.00;100327.05;109530;1270;22041;-78
2023/12/06 10:57:43;;;;;;;;;;;;;;;;;;;;;
2023/12/06 11:00:17;;;;;;;144.70;88.60;;;;;;;-2.47;100.00;100325.85;109970;1265;23586;-76
2023/12/06 11:03:02;;;;;;;120.50;78.00;;;;;;;-2.44;100.00;100325.91;110397;1260;22006;-76
2023/12/06 11:05:50;;;;;;;112.70;78.90;;;;;;;-2.40;100.00;100321.36;110627;1260;22005;-76
2023/12/06 11:09:00;;;;;;;117.20;80.50;;;;;;;-2.35;100.00;100318.02;110555;1260;21999;-76
2023/12/06 11:12:22;;;;;;;112.70;78.40;;;;;;;-2.31;100.00;100324.55;110676;1260;23645;-78
2023/12/06 11:15:45;;;;;;;106.70;73.90;;;;;;;-2.28;100.00;100319.14;111034;1260;22282;-80
2023/12/06 11:18:28;;;;;;;105.70;72.70;;;;;;;-2.26;100.00;100316.95;110720;1260;21974;-79
2023/12/06 11:21:10;;;;;;;112.30;78.90;;;;;;;-2.24;100.00;100317.84;110883;1260;21971;-77
2023/12/06 11:24:04;;;;;;;111.30;76.60;;;;;;;-2.21;100.00;100318.21;109925;1267;21984;-79
2023/12/06 11:26:37;;;;;;;100.70;75.90;;;;;;;-2.15;100.00;100318.63;109970;1265;22057;-76
2023/12/06 11:29:12;;;;;;;112.50;79.50;;;;;;;-2.09;100.00;100315.64;109707;1264;22672;-77
2023/12/06 11:31:45;;;;;;;117.10;79.50;;;;;;;-2.00;100.00;100317.46;109551;1272;23007;-81
2023/12/06 11:34:37;;;;;;;109.60;80.80;;;;;;;-1.94;100.00;100317.04;109584;1272;21976;-81
2023/12/06 11:37:18;;;;;;;115.20;80.60;;;;;;;-1.89;100.00;100318.46;109673;1272;22007;-79
2023/12/06 11:40:18;;;;;;;119.90;82.60;;;;;;;-1.86;100.00;100312.52;109160;1272;21999;-77
2023/12/06 11:43:01;;;;;;;130.40;91.50;;;;;;;-1.86;100.00;100308.61;110003;1265;22206;-79
2023/12/06 11:45:37;;;;;;;117.70;83.80;;;;;;;-1.87;100.00;100309.60;109859;1270;22730;-76
2023/12/06 11:48:13;;;;;;;123.10;81.20;;;;;;;-1.89;100.00;100313.84;110207;1265;23826;-77
2023/12/06 11:50:59;;;;;;;123.00;81.60;;;;;;;-1.93;100.00;100315.16;110042;1265;21963;-78
2023/12/06 11:53:39;;;;;;;119.90;80.80;;;;;;;-1.94;100.00;100313.95;110407;1265;23138;-78
2023/12/06 11:56:23;;;;;;;127.80;87.40;;;;;;;-1.93;100.00;100313.45;110569;1265;22035;-76
2023/12/06 11:59:02;;;;;;;118.80;82.30;;;;;;;-1.92;100.00;100317.23;110167;1260;22982;-77
2023/12/06 12:01:40;;;;;;;111.60;79.60;;;;;;;-1.91;100.00;100318.95;109886;1265;22485;-75
2023/12/06 12:04:28;;;;;;;112.00;79.20;;;;;;;-1.89;100.00;100321.35;110511;1260;21971;-78
2023/12/06 12:07:01;;;;;;;109.60;78.70;;;;;;;-1.87;100.00;100324.10;110862;1260;21995;-77
2023/12/06 12:09:44;;;;;;;108.60;80.60;;;;;;;-1.84;100.00;100323.80;110608;1260;22026;-76
2023/12/06 12:12:24;;;;;;;103.20;76.60;;;;;;;-1.82;100.00;100320.42;110137;1266;22010;-79
2023/12/06 12:15:04;;;;;;;110.50;76.70;;;;;;;-1.79;100.00;100319.60;110033;1266;21983;-77
2023/12/06 12:17:42;;;;;;;94.40;71.60;;;;;;;-1.77;100.00;100318.09;109999;1266;21978;-78
2023/12/06 12:20:17;;;;;;;101.00;76.60;;;;;;;-1.75;100.00;100316.23;109335;1271;21982;-77
2023/12/06 12:22:59;;;;;;;101.80;72.80;;;;;;;-1.74;100.00;100318.98;109349;1271;22151;-77
2023/12/06 12:25:31;;;;;;;105.00;76.40;;;;;;;-1.71;100.00;100316.28;109328;1271;23701;-79
2023/12/06 12:28:07;;;;;;;101.00;74.90;;;;;;;-1.68;100.00;100313.24;109356;1271;23631;-76
2023/12/06 12:30:42;;;;;;;103.60;75.90;;;;;;;-1.66;100.00;100316.16;109182;1271;21987;-76
2023/12/06 12:33:15;;;;;;;108.50;77.20;;;;;;;-1.69;100.00;100309.30;109347;1271;21973;-77
2023/12/06 12:36:12;;;;;;;107.00;76.00;;;;;;;-1.69;100.00;100311.35;109264;1272;21990;-80
2023/12/06 12:39:16;;;;;;;118.80;80.80;;;;;;;-1.75;100.00;100305.66;109924;1265;22515;-77
2023/12/06 12:41:46;;;;;;;103.60;74.30;;;;;;;-1.77;100.00;100308.36;110437;1265;23677;-79
2023/12/06 12:44:18;;;;;;;100.10;75.80;;;;;;;-1.75;100.00;100312.98;110262;1265;21976;-78
2023/12/06 12:46:54;;;;;;;105.30;74.50;;;;;;;-1.73;100.00;100316.77;110418;1265;23723;-79
2023/12/06 12:49:42;;;;;;;100.90;73.40;;;;;;;-1.74;100.00;100318.13;109823;1267;22429;-79
2023/12/06 12:52:17;;;;;;;102.20;74.30;;;;;;;-1.78;100.00;100312.79;109662;1270;22148;-79
2023/12/06 12:54:55;;;;;;;101.50;75.60;;;;;;;-1.78;100.00;100313.48;109622;1270;22760;-79
2023/12/06 12:57:44;;;;;;;105.70;77.20;;;;;;;-1.78;100.00;100314.84;109420;1270;22001;-78
2023/12/06 13:00:32;;;;;;;100.80;74.30;;;;;;;-1.79;100.00;100319.27;109489;1270;23824;-78
2023/12/06 13:03:17;;;;;;;95.70;69.00;;;;;;;-1.81;100.00;100315.98;109645;1270;22809;-78
2023/12/06 13:06:05;;;;;;;105.30;73.80;;;;;;;-1.82;100.00;100317.86;109430;1270;23509;-79
2023/12/06 13:08:43;;;;;;;105.90;75.50;;;;;;;-1.83;100.00;100303.00;109499;1270;23747;-79
2023/12/06 13:11:32;;;;;;;107.20;74.20;;;;;;;-1.75;100.00;100312.48;109583;1270;21989;-78
2023/12/06 13:14:26;;;;;;;109.10;78.90;;;;;;;-1.75;100.00;100312.83;109486;1270;23031;-78
2023/12/06 13:17:21;;;;;;;107.90;77.40;;;;;;;-1.75;100.00;100314.20;109730;1270;23749;-78
2023/12/06 13:19:58;;;;;;;108.30;78.00;;;;;;;-1.72;100.00;100318.16;109836;1270;21984;-78
2023/12/06 13:22:33;;;;;;;108.90;78.10;;;;;;;-1.70;100.00;100321.59;109427;1267;23065;-81
2023/12/06 13:25:53;;;;;;;104.90;74.70;;;;;;;-1.71;100.00;100322.09;109542;1269;23617;-79
2023/12/06 13:29:22;;;;;;;105.50;75.50;;;;;;;-1.71;100.00;100322.77;109946;1270;23695;-79
2023/12/06 13:32:13;;;;;;;;;;;;;;;;;;;;;